Terminal Aerodrome Forecast
Issued by NWS

Home | Current Version | Previous Version | Text Only | Print | Product List | Glossary On
Versions: 1 2 3 4 5 6 7 8 9 10 11 12 13 14 15
000
FTUS44 KTSA 250520
TAFFYV
TAF
KFYV 250520Z 2506/2606 18003KT P6SM SKC
     FM250900 00000KT P6SM OVC100
     FM251400 00000KT 4SM -SHRA BR OVC025
     FM251600 29010KT 2SM -SHRA BR OVC007=

USA.gov is the U.S. government's official web portal to all federal, state and local government web resources and services.